Time;durP1;ratioP1;P1;durP2;ratioP2;P2;SDS_P1;SDS_P2;PMS_P1;PMS_P2;Temp;Humidity;BMP_temperature;BMP_pressure;BME280_temperature;BME280_humidity;BME280_pressure;Samples;Min_cycle;Max_cycle;Signal;HPM_P1;HPM_P2
2023/06/14 00:02:03;;;;;;;7.97;6.20;;;;;;;18.83;48.54;101305.22;5009988;28;20120;-84
2023/06/14 00:04:28;;;;;;;8.60;6.80;;;;;;;18.74;48.25;101307.78;5011111;28;20152;-83
2023/06/14 00:06:56;;;;;;;10.57;7.25;;;;;;;18.63;48.30;101310.72;5011463;28;20034;-83
2023/06/14 00:09:23;;;;;;;8.05;6.28;;;;;;;18.57;49.43;101311.31;5007286;28;20493;-83
2023/06/14 00:11:48;;;;;;;8.35;6.50;;;;;;;18.64;49.55;101315.06;4994468;28;20080;-83
2023/06/14 00:14:14;;;;;;;8.10;6.47;;;;;;;18.64;48.74;101322.22;5012159;28;20112;-83
2023/06/14 00:16:42;;;;;;;7.93;6.55;;;;;;;18.51;48.47;101311.91;5010891;28;20036;-83
2023/06/14 00:19:10;;;;;;;9.15;5.82;;;;;;;18.47;48.70;101314.06;5011927;28;20108;-83
2023/06/14 00:21:37;;;;;;;12.05;6.55;;;;;;;18.45;48.10;101323.19;5010880;28;20029;-85
2023/06/14 00:24:04;;;;;;;10.55;5.93;;;;;;;18.41;48.13;101320.00;5010324;28;20030;-84
2023/06/14 00:26:30;;;;;;;10.25;6.40;;;;;;;18.40;48.00;101325.44;5012491;28;20145;-83
2023/06/14 00:28:56;;;;;;;10.27;6.32;;;;;;;18.35;47.81;101319.75;5006315;28;20056;-83
2023/06/14 00:31:22;;;;;;;9.43;6.22;;;;;;;18.36;47.62;101314.25;4997581;28;20104;-83
2023/06/14 00:33:48;;;;;;;9.48;6.40;;;;;;;18.35;47.21;101325.06;5011598;28;20054;-83
2023/06/14 00:36:13;;;;;;;9.43;6.50;;;;;;;18.32;47.46;101317.38;5008831;28;20616;-83
2023/06/14 00:38:39;;;;;;;10.40;6.32;;;;;;;18.29;47.39;101323.03;5010072;28;20025;-83
2023/06/14 00:41:05;;;;;;;7.60;5.80;;;;;;;18.22;48.74;101324.63;5010607;28;20093;-83
2023/06/14 00:43:36;;;;;;;7.03;5.70;;;;;;;18.15;49.13;101330.56;5002977;28;20081;-84
2023/06/14 00:46:02;;;;;;;8.07;5.55;;;;;;;18.15;47.89;101332.38;5008485;28;20387;-83
2023/06/14 00:48:28;;;;;;;7.93;5.53;;;;;;;18.05;47.88;101335.13;5008240;28;20048;-83
2023/06/14 00:50:55;;;;;;;8.85;5.90;;;;;;;17.97;48.45;101318.19;5008484;28;20025;-83
2023/06/14 00:53:22;;;;;;;10.57;6.10;;;;;;;17.93;48.40;101328.31;5010754;28;20022;-83
2023/06/14 00:55:48;;;;;;;9.38;5.68;;;;;;;17.97;47.64;101329.69;5015745;28;20113;-81
2023/06/14 00:58:14;;;;;;;12.85;5.90;;;;;;;17.91;47.83;101334.78;5009118;28;20108;-83
2023/06/14 01:00:40;;;;;;;6.75;5.50;;;;;;;17.91;49.04;101330.28;5008051;28;20022;-83
2023/06/14 01:03:06;;;;;;;10.50;6.10;;;;;;;17.81;47.25;101334.84;5007522;28;20382;-83
2023/06/14 01:05:31;;;;;;;10.02;5.78;;;;;;;17.76;48.11;101331.78;5009206;28;20029;-83
2023/06/14 01:08:18;;;;;;;7.35;5.80;;;;;;;17.75;47.75;101335.44;5009656;28;20033;-83
2023/06/14 01:10:53;;;;;;;8.18;5.90;;;;;;;17.73;47.16;101332.06;5010656;28;20036;-84
2023/06/14 01:13:29;;;;;;;11.43;5.50;;;;;;;17.74;46.76;101339.06;5009529;28;20036;-84
2023/06/14 01:15:55;;;;;;;8.10;5.70;;;;;;;17.72;47.19;101330.41;5010714;28;20057;-84
2023/06/14 01:18:24;;;;;;;9.48;6.28;;;;;;;17.68;46.75;101329.88;5001343;28;20036;-83
2023/06/14 01:20:49;;;;;;;7.50;5.38;;;;;;;17.67;46.43;101335.34;5008063;28;20021;-84
2023/06/14 01:23:19;;;;;;;7.88;5.60;;;;;;;17.62;46.95;101337.56;5008666;28;20096;-83
2023/06/14 01:25:44;;;;;;;7.68;5.75;;;;;;;17.63;45.95;101333.94;5005011;28;20052;-83
2023/06/14 01:28:11;;;;;;;15.93;5.60;;;;;;;17.59;46.18;101332.50;5013328;28;20111;-84
2023/06/14 01:30:38;;;;;;;8.60;5.18;;;;;;;17.55;46.07;101338.13;5009705;28;20433;-84
2023/06/14 01:33:05;;;;;;;9.73;5.57;;;;;;;17.55;45.77;101329.31;5008607;28;20034;-85
2023/06/14 01:35:31;;;;;;;9.35;5.30;;;;;;;17.53;45.70;101333.94;5005633;28;20023;-81
2023/06/14 01:37:58;;;;;;;7.97;4.97;;;;;;;17.55;45.55;101334.63;5007907;28;20111;-83
2023/06/14 01:40:25;;;;;;;6.10;5.15;;;;;;;17.54;45.54;101336.44;5009376;28;20030;-84
2023/06/14 01:42:51;;;;;;;10.27;5.13;;;;;;;17.55;45.40;101335.47;5009286;28;20041;-83
2023/06/14 01:45:18;;;;;;;10.52;5.43;;;;;;;17.54;45.01;101332.97;5008807;28;20441;-83
2023/06/14 01:47:45;;;;;;;11.30;5.35;;;;;;;17.53;45.26;101334.78;5008164;28;20553;-81
2023/06/14 01:50:10;;;;;;;7.07;4.70;;;;;;;17.54;45.23;101332.97;5008899;28;20033;-84
2023/06/14 01:52:37;;;;;;;6.63;4.80;;;;;;;17.52;44.98;101324.28;5006758;28;20049;-84
2023/06/14 01:55:05;;;;;;;6.88;5.07;;;;;;;17.49;45.29;101320.09;5011012;28;20045;-84
2023/06/14 01:57:30;;;;;;;9.02;5.07;;;;;;;17.50;44.84;101320.94;5012522;28;20045;-82
2023/06/14 01:59:56;;;;;;;10.73;5.15;;;;;;;17.47;44.54;101321.22;5013794;28;20033;-82
2023/06/14 02:02:21;;;;;;;8.80;5.05;;;;;;;17.47;45.07;101332.72;5016268;28;20029;-83
2023/06/14 02:04:52;;;;;;;8.15;5.13;;;;;;;17.41;45.36;101333.28;5015397;28;20030;-84
2023/06/14 02:07:18;;;;;;;9.65;5.10;;;;;;;17.37;45.20;101325.75;5013611;28;20029;-84
2023/06/14 02:09:43;;;;;;;7.57;4.72;;;;;;;17.33;45.26;101321.72;5002120;28;20022;-83
2023/06/14 02:12:12;;;;;;;6.78;4.85;;;;;;;17.36;45.30;101330.25;4996344;28;20018;-84
2023/06/14 02:14:38;;;;;;;7.72;4.88;;;;;;;17.33;45.22;101330.53;5011574;28;20042;-83
2023/06/14 02:17:04;;;;;;;7.03;5.00;;;;;;;17.31;45.46;101327.19;5016683;28;20101;-82
2023/06/14 02:19:30;;;;;;;8.45;4.78;;;;;;;17.32;45.50;101334.19;5014657;28;20486;-83
2023/06/14 02:21:56;;;;;;;10.35;5.40;;;;;;;17.27;45.52;101331.13;5013239;28;20506;-83
2023/06/14 02:24:21;;;;;;;8.05;4.72;;;;;;;17.25;45.73;101332.25;5014646;28;20046;-83
2023/06/14 02:26:56;;;;;;;6.95;4.80;;;;;;;17.21;45.53;101332.53;5025756;28;20108;-83
2023/06/14 02:29:21;;;;;;;12.90;5.00;;;;;;;17.17;45.83;101333.78;5035457;28;20036;-82
2023/06/14 02:31:48;;;;;;;6.57;4.43;;;;;;;17.17;45.88;101325.81;5016299;28;20034;-83
2023/06/14 02:34:16;;;;;;;7.53;5.00;;;;;;;17.10;46.11;101334.50;5014667;28;20030;-82
2023/06/14 02:36:45;;;;;;;12.13;4.65;;;;;;;17.10;45.95;101342.47;5013848;28;20057;-83
2023/06/14 02:39:11;;;;;;;7.70;5.13;;;;;;;17.06;46.18;101341.09;5011912;28;20032;-82
2023/06/14 02:41:36;;;;;;;7.57;4.93;;;;;;;17.02;46.36;101343.19;5012973;28;20033;-81
2023/06/14 02:44:02;;;;;;;6.55;5.10;;;;;;;17.00;46.55;101341.66;5003902;28;20036;-83
2023/06/14 02:46:28;;;;;;;7.82;4.68;;;;;;;17.00;46.55;101345.16;5014516;28;20264;-83
2023/06/14 02:48:53;;;;;;;9.23;5.20;;;;;;;16.95;46.63;101346.59;5013000;28;20030;-82
2023/06/14 02:51:19;;;;;;;7.53;4.97;;;;;;;16.88;47.02;101346.31;5015067;28;20036;-83
2023/06/14 02:53:45;;;;;;;8.20;5.03;;;;;;;16.80;47.31;101347.00;5012130;28;20033;-82
2023/06/14 02:56:11;;;;;;;7.05;5.20;;;;;;;16.79;47.20;101341.81;5021884;28;20029;-84
2023/06/14 02:58:39;;;;;;;7.53;4.80;;;;;;;16.74;47.65;101344.91;5023819;28;20030;-81
2023/06/14 03:01:07;;;;;;;8.75;5.38;;;;;;;16.70;47.69;101345.34;5006151;28;20025;-83
2023/06/14 03:03:33;;;;;;;9.70;5.18;;;;;;;16.68;47.82;101342.81;5010462;28;20022;-83
2023/06/14 03:06:04;;;;;;;11.38;5.18;;;;;;;16.65;47.94;101339.56;5013082;28;20026;-84
2023/06/14 03:08:29;;;;;;;7.90;5.05;;;;;;;16.62;47.90;101346.00;5013868;28;20038;-83
2023/06/14 03:10:56;;;;;;;8.57;5.05;;;;;;;16.56;48.26;101351.88;5011513;28;20486;-83
2023/06/14 03:13:21;;;;;;;7.60;4.82;;;;;;;16.52;48.67;101355.81;5010593;28;20518;-83
2023/06/14 03:15:49;;;;;;;10.40;5.53;;;;;;;16.51;48.58;101359.44;5003892;28;20030;-83
2023/06/14 03:18:15;;;;;;;9.88;5.28;;;;;;;16.51;48.66;101359.44;5011748;28;20037;-80
2023/06/14 03:20:45;;;;;;;7.20;5.03;;;;;;;16.45;48.87;101354.69;5011830;28;20022;-82
2023/06/14 03:23:12;;;;;;;10.23;5.40;;;;;;;16.41;48.96;101363.88;5012412;28;20026;-80
2023/06/14 03:25:38;;;;;;;7.97;5.00;;;;;;;16.40;48.96;101359.56;5013583;28;20030;-82
2023/06/14 03:28:06;;;;;;;7.15;5.10;;;;;;;16.40;49.23;101368.34;5012385;28;20025;-83
2023/06/14 03:30:32;;;;;;;7.30;5.22;;;;;;;16.36;49.17;101366.13;5011524;28;20497;-83
2023/06/14 03:33:04;;;;;;;6.93;5.10;;;;;;;16.35;48.87;101365.28;5008993;28;20026;-80
2023/06/14 03:35:30;;;;;;;;;;;;;;;16.45;48.17;101371.47;5007757;28;20038;-83
2023/06/14 03:37:55;;;;;;;9.95;5.78;;;;;;;16.32;49.22;101364.72;5008721;28;19924;-82
2023/06/14 03:40:21;;;;;;;8.65;5.30;;;;;;;16.27;49.62;101365.13;5011637;28;20073;-83
2023/06/14 03:42:47;;;;;;;8.57;5.07;;;;;;;16.23;49.83;101372.53;5009673;28;20576;-83
2023/06/14 03:45:12;;;;;;;8.00;5.57;;;;;;;16.22;49.58;101365.56;5010402;28;20112;-82
2023/06/14 03:47:38;;;;;;;7.40;5.00;;;;;;;16.21;50.02;101366.53;5010717;28;20052;-80
2023/06/14 03:50:04;;;;;;;7.80;5.60;;;;;;;16.19;50.14;101371.13;5007035;28;20033;-83
2023/06/14 03:52:33;;;;;;;11.02;5.15;;;;;;;16.16;50.13;101376.72;4991576;28;20491;-83
2023/06/14 03:55:00;;;;;;;8.80;4.95;;;;;;;16.14;50.28;101376.03;5022506;28;20084;-83
2023/06/14 03:57:26;;;;;;;11.95;5.45;;;;;;;16.17;50.49;101382.88;5031529;28;20541;-83
2023/06/14 03:59:51;;;;;;;8.88;5.32;;;;;;;16.14;50.35;101381.34;5028569;28;20021;-82
2023/06/14 04:02:17;;;;;;;9.85;5.60;;;;;;;16.25;50.52;101377.72;5008182;28;20478;-80
2023/06/14 04:04:45;;;;;;;14.52;5.45;;;;;;;16.78;49.45;101386.16;5011148;28;20025;-83
2023/06/14 04:07:12;;;;;;;6.40;4.72;;;;;;;17.59;47.84;101388.41;4995636;28;20052;-83
2023/06/14 04:09:38;;;;;;;11.02;5.13;;;;;;;18.14;46.59;101387.47;5000250;28;20029;-83
2023/06/14 04:12:06;;;;;;;8.15;5.70;;;;;;;18.47;45.20;101385.16;5011674;28;20038;-83
2023/06/14 04:14:32;;;;;;;6.90;4.93;;;;;;;18.86;44.52;101377.72;5008902;28;20434;-84
2023/06/14 04:16:58;;;;;;;7.13;4.65;;;;;;;19.26;43.50;101379.03;5010558;28;20383;-83
2023/06/14 04:19:24;;;;;;;15.65;5.68;;;;;;;19.05;43.81;101384.69;5011595;28;20129;-83
2023/06/14 04:21:50;;;;;;;9.88;5.35;;;;;;;18.81;44.28;101387.16;5011065;28;20054;-83
2023/06/14 04:24:15;;;;;;;15.02;5.70;;;;;;;18.47;45.01;101391.34;5008522;28;20532;-83
2023/06/14 04:26:44;;;;;;;11.13;5.00;;;;;;;18.02;45.86;101394.00;5022931;28;20108;-83
2023/06/14 04:29:14;;;;;;;8.35;5.50;;;;;;;17.76;46.77;101393.00;5030710;28;20108;-83
2023/06/14 04:31:42;;;;;;;8.45;5.80;;;;;;;17.59;47.41;101393.72;5020388;28;20030;-82
2023/06/14 04:34:08;;;;;;;7.60;5.30;;;;;;;17.49;47.73;101399.06;5010226;28;20033;-83
2023/06/14 04:36:36;;;;;;;9.27;5.38;;;;;;;17.29;48.00;101400.97;5010406;28;20497;-83
2023/06/14 04:39:03;;;;;;;9.25;6.28;;;;;;;17.25;48.64;101394.25;5010301;28;20402;-84
2023/06/14 04:41:32;;;;;;;9.68;5.68;;;;;;;17.11;48.63;101395.53;4999554;28;20105;-83
2023/06/14 04:44:01;;;;;;;12.15;6.00;;;;;;;17.03;49.19;101397.22;4991011;28;20046;-84
2023/06/14 04:46:31;;;;;;;9.07;5.63;;;;;;;16.98;49.01;101399.47;4989903;28;20029;-82
2023/06/14 04:48:57;;;;;;;9.43;5.60;;;;;;;16.97;49.78;101392.47;4990530;28;20740;-84
2023/06/14 04:51:29;;;;;;;9.73;5.93;;;;;;;16.93;49.89;101402.56;5005205;28;20030;-83
2023/06/14 04:53:57;;;;;;;9.13;5.15;;;;;;;16.97;49.59;101398.63;5009324;28;20373;-83
2023/06/14 04:56:24;;;;;;;9.27;5.60;;;;;;;16.91;50.02;101405.34;5021782;28;20485;-83
2023/06/14 04:58:50;;;;;;;9.10;6.10;;;;;;;16.91;50.88;101402.69;4995397;28;20037;-84
2023/06/14 05:01:15;;;;;;;7.78;5.90;;;;;;;16.92;50.67;101406.19;5006410;28;20029;-83
2023/06/14 05:03:44;;;;;;;9.73;6.00;;;;;;;17.00;51.08;101408.13;5008097;28;20494;-84
2023/06/14 05:06:11;;;;;;;9.38;6.10;;;;;;;16.99;50.58;101401.13;5005309;28;20080;-84
2023/06/14 05:08:37;;;;;;;15.15;5.97;;;;;;;16.97;50.63;101411.06;5006196;28;20394;-81
2023/06/14 05:11:02;;;;;;;12.45;6.10;;;;;;;16.94;50.70;101409.53;5009104;28;20029;-85
2023/06/14 05:13:28;;;;;;;10.30;6.28;;;;;;;16.91;51.11;101412.50;5009070;28;20034;-84
2023/06/14 05:15:53;;;;;;;9.15;6.38;;;;;;;16.97;50.75;101408.41;4998060;28;20529;-84
2023/06/14 05:18:19;;;;;;;10.43;6.13;;;;;;;17.02;51.09;101416.81;5007534;28;20080;-83
2023/06/14 05:20:45;;;;;;;9.27;5.85;;;;;;;17.01;51.64;101421.28;5007646;28;20026;-84
2023/06/14 05:23:14;;;;;;;10.73;5.68;;;;;;;17.05;51.13;101420.03;5008325;28;20034;-79
2023/06/14 05:25:41;;;;;;;11.60;6.15;;;;;;;17.04;51.26;101425.47;5013389;28;20017;-85
2023/06/14 05:28:09;;;;;;;13.88;5.70;;;;;;;17.07;51.10;101425.19;5030596;28;20021;-83
2023/06/14 05:30:42;;;;;;;13.00;7.07;;;;;;;17.06;51.27;101428.84;5010539;28;20434;-84
2023/06/14 05:33:10;;;;;;;10.02;7.47;;;;;;;17.06;50.88;101428.84;4989820;28;20490;-83
2023/06/14 05:35:36;;;;;;;14.15;6.22;;;;;;;17.18;51.28;101417.06;4992092;28;20080;-84
2023/06/14 05:38:01;;;;;;;9.98;6.30;;;;;;;17.18;50.89;101427.69;5010078;28;20033;-83
2023/06/14 05:40:27;;;;;;;14.60;5.88;;;;;;;17.22;50.92;101419.31;5009346;28;20913;-82
2023/06/14 05:42:52;;;;;;;15.07;6.03;;;;;;;17.32;51.30;101427.28;5008477;28;20043;-84
2023/06/14 05:45:18;;;;;;;12.80;6.00;;;;;;;17.40;51.17;101431.88;5008676;28;20101;-83
2023/06/14 05:47:43;;;;;;;62.67;10.13;;;;;;;17.43;51.05;101429.75;5008423;28;20054;-83
2023/06/14 05:50:10;;;;;;;10.18;5.47;;;;;;;17.49;50.72;101433.66;4994656;28;20036;-83
2023/06/14 05:52:39;;;;;;;15.30;5.47;;;;;;;17.55;51.14;101430.44;5002769;28;20036;-83
2023/06/14 05:55:07;;;;;;;12.27;5.68;;;;;;;17.63;51.34;101438.56;5012681;28;20021;-84
2023/06/14 05:57:33;;;;;;;12.75;5.95;;;;;;;17.74;51.17;101434.91;5015242;28;20041;-84
2023/06/14 05:59:58;;;;;;;17.98;5.93;;;;;;;17.75;50.22;101439.25;5008417;28;20049;-74
2023/06/14 06:02:24;;;;;;;11.88;5.80;;;;;;;17.83;50.24;101447.31;5009868;28;20030;-75
2023/06/14 06:04:50;;;;;;;9.73;5.20;;;;;;;17.89;50.19;101444.06;5008617;28;20049;-73
2023/06/14 06:07:16;;;;;;;9.05;5.10;;;;;;;17.96;50.37;101447.81;4997959;28;20085;-74
2023/06/14 06:09:44;;;;;;;7.68;5.32;;;;;;;18.01;49.72;101453.56;5010080;28;20087;-74
2023/06/14 06:12:10;;;;;;;11.60;5.00;;;;;;;18.05;50.01;101454.13;5009652;28;20080;-73
2023/06/14 06:14:35;;;;;;;8.88;5.45;;;;;;;18.06;49.84;101453.97;5009375;28;20026;-73
2023/06/14 06:17:00;;;;;;;12.02;5.10;;;;;;;18.14;50.13;101454.06;5007704;28;20065;-73
2023/06/14 06:19:26;;;;;;;12.18;5.70;;;;;;;18.21;49.52;101458.81;5009008;28;20036;-73
2023/06/14 06:21:51;;;;;;;11.57;5.97;;;;;;;18.25;49.33;101465.50;5006322;28;20130;-82
2023/06/14 06:24:16;;;;;;;16.92;7.25;;;;;;;18.31;49.08;101464.91;5010605;28;20061;-83
2023/06/14 06:26:42;;;;;;;9.88;5.00;;;;;;;18.37;49.00;101464.31;5013795;28;20034;-82
2023/06/14 06:29:11;;;;;;;14.05;5.18;;;;;;;18.46;50.04;101466.09;5007178;28;20032;-82
2023/06/14 06:31:36;;;;;;;15.05;5.03;;;;;;;18.54;49.12;101466.19;5009194;28;20025;-83
2023/06/14 06:34:02;;;;;;;8.40;4.80;;;;;;;18.64;48.66;101472.31;5009910;28;20049;-83
2023/06/14 06:36:28;;;;;;;12.35;4.95;;;;;;;18.70;48.27;101471.72;5007943;28;20022;-84
2023/06/14 06:38:53;;;;;;;7.63;4.70;;;;;;;18.83;48.51;101478.53;5009944;28;20030;-83
2023/06/14 06:41:18;;;;;;;15.32;5.35;;;;;;;18.91;48.18;101478.59;5006056;28;20033;-83
2023/06/14 06:43:45;;;;;;;11.85;4.68;;;;;;;18.99;47.34;101481.34;5007116;28;20068;-82
2023/06/14 06:46:12;;;;;;;5.75;4.20;;;;;;;19.07;47.29;101481.41;5010411;28;20379;-83
2023/06/14 06:48:37;;;;;;;13.57;4.68;;;;;;;19.20;46.78;101479.19;5009533;28;20073;-82
2023/06/14 06:51:03;;;;;;;5.57;4.10;;;;;;;19.28;46.53;101481.94;5011426;28;20080;-82
2023/06/14 06:53:28;;;;;;;6.93;4.43;;;;;;;19.36;46.35;101484.66;5011263;28;20816;-82
2023/06/14 06:55:54;;;;;;;8.57;4.57;;;;;;;19.49;46.47;101491.41;5009778;28;20038;-81
2023/06/14 06:58:21;;;;;;;9.43;4.72;;;;;;;19.54;45.81;101491.81;5006046;28;20030;-84
2023/06/14 07:00:47;;;;;;;8.13;4.00;;;;;;;19.64;45.42;101488.09;5010899;28;20029;-81
2023/06/14 07:03:13;;;;;;;9.93;4.28;;;;;;;19.72;44.86;101489.97;5012038;28;20033;-80
2023/06/14 07:05:38;;;;;;;11.68;4.53;;;;;;;19.89;45.21;101491.72;5013118;28;20022;-81
2023/06/14 07:08:03;;;;;;;9.52;4.03;;;;;;;20.11;44.51;101489.50;5012801;28;20065;-80
2023/06/14 07:10:29;;;;;;;8.90;4.20;;;;;;;20.38;44.38;101491.94;5011997;28;20026;-79
2023/06/14 07:12:54;;;;;;;8.50;4.10;;;;;;;20.57;43.72;101491.72;5007715;28;20030;-80
2023/06/14 07:15:21;;;;;;;8.90;3.90;;;;;;;20.84;43.78;101504.00;4995581;28;20034;-80
2023/06/14 07:17:46;;;;;;;8.98;4.25;;;;;;;21.03;42.17;101502.84;5017654;28;20426;-80
2023/06/14 07:20:13;;;;;;;11.90;4.35;;;;;;;21.26;42.39;101501.25;5032230;28;20060;-81
2023/06/14 07:22:43;;;;;;;13.23;4.38;;;;;;;21.40;41.67;101499.72;5031073;28;20031;-81
2023/06/14 07:25:13;;;;;;;10.52;4.07;;;;;;;21.60;42.03;101500.19;5014823;28;20429;-80
2023/06/14 07:27:40;;;;;;;6.85;4.03;;;;;;;21.92;41.44;101501.97;5011329;28;20021;-81
2023/06/14 07:30:10;;;;;;;11.07;4.57;;;;;;;22.04;40.15;101503.34;5012039;28;20029;-82
2023/06/14 07:32:38;;;;;;;6.65;4.20;;;;;;;22.36;39.89;101513.09;5008289;28;20478;-81
2023/06/14 07:35:07;;;;;;;10.30;3.85;;;;;;;22.43;39.66;101513.25;5011679;28;20707;-81
2023/06/14 07:37:33;;;;;;;8.77;4.05;;;;;;;22.72;40.01;101505.34;5010502;28;20084;-82
2023/06/14 07:39:58;;;;;;;7.05;3.60;;;;;;;22.96;38.40;101514.31;5011626;28;20430;-82
2023/06/14 07:42:24;;;;;;;7.75;3.58;;;;;;;23.13;38.38;101511.31;5010874;28;20334;-81
2023/06/14 07:44:50;;;;;;;7.28;3.80;;;;;;;23.36;37.67;101514.00;5010032;28;20018;-81
2023/06/14 07:47:16;;;;;;;11.35;3.92;;;;;;;23.67;36.93;101521.16;5008027;28;20060;-81
2023/06/14 07:49:44;;;;;;;11.18;3.90;;;;;;;23.55;36.82;101531.50;5009475;28;20034;-82
2023/06/14 07:52:11;;;;;;;6.38;3.58;;;;;;;23.73;36.83;101507.81;5008204;28;20123;-82
2023/06/14 07:54:36;;;;;;;8.98;3.78;;;;;;;23.80;36.84;101521.34;5022746;28;20057;-81
2023/06/14 07:57:02;;;;;;;11.77;3.67;;;;;;;23.71;36.52;101525.16;5010759;28;20032;-82
2023/06/14 07:59:28;;;;;;;8.90;3.83;;;;;;;23.58;36.69;101536.50;5008238;28;20091;-79
2023/06/14 08:01:53;;;;;;;9.13;3.78;;;;;;;23.59;36.94;101522.03;5011143;28;20109;-82
2023/06/14 08:04:18;;;;;;;8.93;3.60;;;;;;;23.76;36.24;101525.44;5010063;28;20045;-75
2023/06/14 08:06:45;;;;;;;16.25;4.00;;;;;;;23.93;36.47;101535.00;5005479;28;20056;-80
2023/06/14 08:09:11;;;;;;;9.02;3.58;;;;;;;24.09;35.85;101528.63;5003799;28;20038;-82
2023/06/14 08:11:36;;;;;;;6.32;3.67;;;;;;;24.20;35.17;101541.59;4992302;28;20022;-81
2023/06/14 08:14:02;;;;;;;5.97;3.30;;;;;;;24.41;35.25;101538.16;4990149;28;20022;-81
2023/06/14 08:16:31;;;;;;;7.75;3.00;;;;;;;24.36;33.34;101533.34;4991864;28;20034;-80
2023/06/14 08:18:56;;;;;;;10.68;3.35;;;;;;;24.38;33.41;101538.53;4991666;28;20053;-80
2023/06/14 08:21:22;;;;;;;5.35;2.95;;;;;;;24.35;33.47;101538.91;4991493;28;20030;-82
2023/06/14 08:23:47;;;;;;;8.27;3.00;;;;;;;24.44;32.97;101531.59;4998628;28;20133;-79
2023/06/14 08:26:13;;;;;;;7.15;3.10;;;;;;;24.55;33.29;101531.13;5013076;28;20513;-79
2023/06/14 08:28:38;;;;;;;8.63;3.50;;;;;;;24.75;33.09;101523.25;5010573;28;20030;-80
2023/06/14 08:31:04;;;;;;;9.75;3.55;;;;;;;24.79;33.10;101527.22;5010665;28;20068;-80
2023/06/14 08:33:29;;;;;;;10.25;3.28;;;;;;;25.26;32.84;101526.75;5007432;28;20030;-80
2023/06/14 08:35:55;;;;;;;7.22;3.03;;;;;;;25.50;32.41;101518.22;5008916;28;20402;-79
2023/06/14 08:38:20;;;;;;;8.40;3.17;;;;;;;25.82;31.31;101516.84;5008567;28;20088;-79
2023/06/14 08:40:51;;;;;;;5.78;3.00;;;;;;;25.85;32.13;101526.41;5007429;28;20484;-80
2023/06/14 08:43:17;;;;;;;9.23;2.97;;;;;;;26.01;30.79;101534.16;5010770;28;20030;-80
2023/06/14 08:45:43;;;;;;;8.02;2.75;;;;;;;26.01;31.27;101526.09;5009923;28;20083;-80
2023/06/14 08:48:09;;;;;;;9.35;2.58;;;;;;;26.09;30.73;101517.84;5008630;28;20081;-80
2023/06/14 08:50:36;;;;;;;4.15;2.67;;;;;;;26.28;31.23;101520.84;5008082;28;20041;-81
2023/06/14 08:53:02;;;;;;;5.07;2.70;;;;;;;26.59;30.24;101518.53;5009772;28;20026;-78
2023/06/14 08:55:30;;;;;;;7.30;2.97;;;;;;;26.80;29.97;101521.06;5010626;28;20087;-79
2023/06/14 08:57:57;;;;;;;12.05;3.05;;;;;;;26.85;30.10;101521.31;5001670;28;20046;-80
2023/06/14 09:00:24;;;;;;;7.78;2.70;;;;;;;27.12;29.44;101518.69;5010658;28;20033;-81
2023/06/14 09:02:55;;;;;;;8.93;2.90;;;;;;;27.37;29.38;101527.84;5008447;28;20037;-80
2023/06/14 09:05:23;;;;;;;4.88;2.10;;;;;;;27.10;28.01;101520.75;5010470;28;20042;-80
2023/06/14 09:07:50;;;;;;;7.22;2.30;;;;;;;27.16;28.47;101526.16;5008292;28;20026;-82
2023/06/14 09:10:16;;;;;;;9.75;2.15;;;;;;;27.19;28.36;101529.47;5009963;28;20108;-80
2023/06/14 09:12:44;;;;;;;5.00;2.25;;;;;;;26.90;27.88;101528.81;5026014;28;20024;-83
2023/06/14 09:15:10;;;;;;;5.32;2.08;;;;;;;26.61;27.16;101527.25;5009341;28;20017;-81
2023/06/14 09:17:36;;;;;;;5.82;2.20;;;;;;;26.34;27.69;101530.88;5008522;28;20441;-81
2023/06/14 09:20:06;;;;;;;6.07;2.45;;;;;;;26.34;28.71;101533.56;5009141;28;20116;-82
2023/06/14 09:22:33;;;;;;;4.43;2.22;;;;;;;26.68;28.03;101525.41;5009270;28;20021;-80
2023/06/14 09:24:59;;;;;;;4.47;2.10;;;;;;;26.80;28.02;101522.94;5009636;28;20049;-80
2023/06/14 09:27:28;;;;;;;23.15;4.05;;;;;;;27.25;28.07;101531.38;5028760;28;20029;-80
2023/06/14 09:29:54;;;;;;;3.92;2.28;;;;;;;27.23;27.16;101523.50;5028598;28;20584;-81
2023/06/14 09:32:23;;;;;;;3.90;2.28;;;;;;;27.27;26.89;101532.84;5016719;28;20049;-82
2023/06/14 09:34:49;;;;;;;2.80;1.88;;;;;;;27.47;26.53;101527.44;5008187;28;20022;-80
2023/06/14 09:37:31;;;;;;;3.58;1.75;;;;;;;27.57;27.37;101527.84;5008357;28;20061;-81
2023/06/14 09:39:57;;;;;;;5.07;1.80;;;;;;;27.26;25.01;101531.19;5009723;28;20036;-81
2023/06/14 09:42:25;;;;;;;3.15;1.45;;;;;;;27.10;24.23;101536.97;5008538;28;20030;-77
2023/06/14 09:44:52;;;;;;;1.38;1.25;;;;;;;27.04;24.79;101535.91;5008273;28;20713;-80
2023/06/14 09:47:18;;;;;;;4.47;1.50;;;;;;;27.15;25.37;101546.09;5010721;28;20495;-80
2023/06/14 09:49:44;;;;;;;2.92;1.55;;;;;;;27.12;25.02;101543.00;5008976;28;20065;-81
2023/06/14 09:52:19;;;;;;;3.80;1.55;;;;;;;27.35;25.29;101531.81;5008340;28;20018;-80
2023/06/14 09:54:46;;;;;;;2.25;1.33;;;;;;;27.47;24.20;101536.38;5009089;28;20487;-82
2023/06/14 09:57:17;;;;;;;3.58;1.27;;;;;;;27.25;24.53;101548.44;5032062;28;20037;-80
2023/06/14 09:59:45;;;;;;;2.05;1.35;;;;;;;27.41;24.38;101537.22;4998779;28;20109;-81
2023/06/14 10:02:20;;;;;;;5.97;1.40;;;;;;;27.78;24.92;101532.22;5008350;28;20026;-82
2023/06/14 10:04:57;;;;;;;4.05;2.25;;;;;;;28.33;24.28;101535.47;5008478;28;20025;-82
2023/06/14 10:07:25;;;;;;;5.10;1.77;;;;;;;28.17;23.26;101528.63;5007613;28;20037;-82
2023/06/14 10:09:52;;;;;;;2.72;1.40;;;;;;;27.88;24.13;101524.50;5002933;28;20538;-83
2023/06/14 10:12:22;;;;;;;3.28;1.60;;;;;;;27.47;23.95;101527.44;5007763;28;20033;-81
2023/06/14 10:14:53;;;;;;;1.77;1.40;;;;;;;27.22;25.00;101524.53;5017944;28;20064;-83
2023/06/14 10:17:27;;;;;;;3.78;1.70;;;;;;;27.27;25.74;101532.84;5027525;28;20041;-82
2023/06/14 10:20:21;;;;;;;5.60;1.50;;;;;;;27.16;25.53;101525.31;5018288;28;20096;-80
2023/06/14 10:23:00;;;;;;;4.30;1.65;;;;;;;27.07;25.96;101524.69;5025401;28;20374;-80
2023/06/14 10:25:30;;;;;;;2.30;1.42;;;;;;;27.08;24.88;101522.81;5028304;28;20048;-81
2023/06/14 10:28:18;;;;;;;8.88;1.70;;;;;;;27.11;26.04;101530.53;5032684;28;20037;-81
2023/06/14 10:31:08;;;;;;;3.40;1.30;;;;;;;27.25;25.73;101529.53;5020165;28;20075;-81
2023/06/14 10:33:50;;;;;;;4.68;1.75;;;;;;;27.31;25.06;101525.16;5020695;28;20097;-78
2023/06/14 10:36:27;;;;;;;4.60;1.63;;;;;;;27.51;26.00;101542.19;5032874;28;20171;-76
2023/06/14 10:39:17;;;;;;;4.38;1.50;;;;;;;27.40;25.63;101538.25;5028137;28;20030;-81
2023/06/14 10:41:52;;;;;;;3.42;1.60;;;;;;;27.32;25.88;101532.22;5023183;28;20080;-81
2023/06/14 10:44:20;;;;;;;4.47;1.70;;;;;;;27.25;24.28;101528.69;5014192;28;20022;-77
2023/06/14 10:46:48;;;;;;;2.20;1.23;;;;;;;27.28;24.36;101529.09;5019767;28;20053;-81
2023/06/14 10:49:20;;;;;;;2.22;1.40;;;;;;;27.26;24.71;101542.00;5031701;28;20029;-80
2023/06/14 10:51:50;;;;;;;3.30;1.80;;;;;;;27.16;25.45;101528.03;5032417;28;20040;-77
2023/06/14 10:54:16;;;;;;;3.80;1.70;;;;;;;27.21;25.20;101525.53;5017193;28;20055;-78
2023/06/14 10:56:50;;;;;;;4.82;1.60;;;;;;;27.23;25.64;101528.91;5022278;28;20026;-82
2023/06/14 10:59:17;;;;;;;2.95;1.65;;;;;;;27.17;25.46;101535.94;5003919;28;20039;-80
2023/06/14 11:02:27;;;;;;;4.03;1.45;;;;;;;27.19;25.87;101535.72;5009000;28;20034;-82
2023/06/14 11:04:53;;;;;;;3.60;1.60;;;;;;;27.03;24.87;101533.41;4998780;28;20482;-82
2023/06/14 11:07:40;;;;;;;5.97;1.63;;;;;;;27.19;25.85;101535.72;5010203;28;20120;-81
2023/06/14 11:10:26;;;;;;;5.85;1.60;;;;;;;27.09;25.68;101530.72;5011270;28;20034;-81
2023/06/14 11:12:54;;;;;;;2.95;1.55;;;;;;;27.40;26.40;101527.44;5011816;28;20036;-81
2023/06/14 11:15:19;;;;;;;4.53;1.90;;;;;;;27.52;25.51;101533.03;5012436;28;20068;-82
2023/06/14 11:17:56;;;;;;;2.78;1.70;;;;;;;27.89;25.06;101520.75;5009509;28;20470;-80
2023/06/14 11:20:26;;;;;;;61.10;8.13;;;;;;;27.97;24.71;101517.00;5011115;28;20026;-82
2023/06/14 11:22:52;;;;;;;77.75;12.20;;;;;;;27.76;25.50;101516.22;5009732;28;20505;-82
2023/06/14 11:25:19;;;;;;;5.28;2.00;;;;;;;27.59;26.04;101519.50;5016514;28;20038;-82
2023/06/14 11:27:45;;;;;;;3.20;1.50;;;;;;;27.68;25.77;101518.31;5011150;28;20037;-82